createdAt,value
2018-05-07T00:00:41.287Z,101741.23
2018-05-07T00:01:44.588Z,101744.59
2018-05-07T00:02:47.902Z,101742.22
2018-05-07T00:03:51.218Z,101743.28
2018-05-07T00:04:54.542Z,101744.87
2018-05-07T00:05:57.954Z,101741.05
2018-05-07T00:07:01.181Z,101741.22
2018-05-07T00:08:04.464Z,101744.05
2018-05-07T00:09:07.779Z,101754.91
2018-05-07T00:10:11.135Z,101743.02
2018-05-07T00:11:14.447Z,101740.98
2018-05-07T00:12:17.758Z,101745.69
2018-05-07T00:13:21.120Z,101738.33
2018-05-07T00:14:24.435Z,101741.61
2018-05-07T00:15:27.758Z,101742.67
2018-05-07T00:16:31.070Z,101742.42
2018-05-07T00:17:34.382Z,101736.85
2018-05-07T00:18:37.701Z,101737.48
2018-05-07T00:19:40.994Z,101735.81
2018-05-07T00:20:44.420Z,101735.53
2018-05-07T00:21:47.644Z,101734.78
2018-05-07T00:22:50.979Z,101735.34
2018-05-07T00:23:54.289Z,101731.45
2018-05-07T00:24:57.581Z,101732.97
2018-05-07T00:26:00.932Z,101729.50
2018-05-07T00:27:04.247Z,101733.20
2018-05-07T00:28:07.589Z,101737.02
2018-05-07T00:29:10.957Z,101727.78
2018-05-07T00:30:14.266Z,101725.66
2018-05-07T00:31:17.585Z,101727.98
2018-05-07T00:32:20.909Z,101724.13
2018-05-07T00:33:24.290Z,101730.92
2018-05-07T00:34:27.607Z,101720.23
2018-05-07T00:35:30.971Z,101720.33
2018-05-07T00:36:34.283Z,101721.67
2018-05-07T00:37:37.599Z,101719.41
2018-05-07T00:38:40.918Z,101724.79
2018-05-07T00:39:44.232Z,101722.59
2018-05-07T00:40:47.537Z,101724.36
2018-05-07T00:41:50.872Z,101726.13
2018-05-07T00:42:54.195Z,101725.71
2018-05-07T00:43:57.510Z,101718.20
2018-05-07T00:45:00.823Z,101725.06
2018-05-07T00:46:04.152Z,101727.43
2018-05-07T00:47:07.467Z,101721.20
2018-05-07T00:48:12.488Z,101719.67
2018-05-07T00:49:15.794Z,101723.48
2018-05-07T00:50:19.103Z,101717.42
2018-05-07T00:51:22.430Z,101718.84
2018-05-07T00:52:25.764Z,101720.81
2018-05-07T00:53:29.071Z,101718.79
2018-05-07T00:54:32.375Z,101718.01
2018-05-07T00:55:35.681Z,101719.06
2018-05-07T00:56:39.010Z,101722.34
2018-05-07T00:57:42.339Z,101721.14
2018-05-07T00:58:45.664Z,101717.28
2018-05-07T00:59:48.965Z,101725.41
2018-05-07T01:00:52.278Z,101722.03
2018-05-07T01:01:55.605Z,101719.98
2018-05-07T01:02:58.935Z,101724.08
2018-05-07T01:04:02.241Z,101722.41
2018-05-07T01:05:05.560Z,101727.43
2018-05-07T01:06:08.854Z,101731.20
2018-05-07T01:07:12.177Z,101725.05
2018-05-07T01:08:15.493Z,101732.33
2018-05-07T01:09:18.801Z,101731.16
2018-05-07T01:10:22.101Z,101734.40
2018-05-07T01:11:25.410Z,101739.84
2018-05-07T01:12:28.719Z,101727.55
2018-05-07T01:13:32.078Z,101730.73
2018-05-07T01:14:35.377Z,101731.33
2018-05-07T01:15:38.982Z,101728.35
2018-05-07T01:16:42.290Z,101737.01
2018-05-07T01:17:45.597Z,101731.70
2018-05-07T01:18:48.922Z,101737.20
2018-05-07T01:19:52.243Z,101738.23
2018-05-07T01:20:55.549Z,101738.36
2018-05-07T01:21:58.858Z,101737.09
2018-05-07T01:23:02.175Z,101738.00
2018-05-07T01:24:05.494Z,101732.80
2018-05-07T01:25:08.819Z,101735.06
2018-05-07T01:26:12.133Z,101731.09
2018-05-07T01:27:15.448Z,101737.98
2018-05-07T01:28:18.788Z,101736.70
2018-05-07T01:29:22.113Z,101738.60
2018-05-07T01:30:25.412Z,101735.66
2018-05-07T01:31:28.755Z,101732.68
2018-05-07T01:32:32.055Z,101731.08
2018-05-07T01:33:35.365Z,101732.55
2018-05-07T01:34:38.690Z,101734.98
2018-05-07T01:35:41.987Z,101732.95
2018-05-07T01:36:45.291Z,101730.04
2018-05-07T01:37:48.613Z,101735.52
2018-05-07T01:38:51.915Z,101740.17
2018-05-07T01:39:55.240Z,101738.50
2018-05-07T01:40:58.549Z,101737.71
2018-05-07T01:42:01.850Z,101736.50
2018-05-07T01:43:05.158Z,101740.76
2018-05-07T01:44:08.470Z,101740.41
2018-05-07T01:45:11.797Z,101735.63
2018-05-07T01:46:15.116Z,101734.41
2018-05-07T01:47:18.424Z,101738.60
2018-05-07T01:48:23.284Z,101737.39
2018-05-07T01:49:26.605Z,101738.47
2018-05-07T01:50:29.933Z,101729.70
2018-05-07T01:51:33.245Z,101728.03
2018-05-07T01:52:36.594Z,101731.77
2018-05-07T01:53:39.933Z,101730.58
2018-05-07T01:54:43.223Z,101730.71
2018-05-07T01:55:46.548Z,101731.80
2018-05-07T01:56:49.860Z,101726.13
2018-05-07T01:57:53.171Z,101730.75
2018-05-07T01:58:56.478Z,101727.34
2018-05-07T01:59:59.784Z,101729.24
2018-05-07T02:01:03.134Z,101727.54
2018-05-07T02:02:06.435Z,101728.09
2018-05-07T02:03:09.743Z,101727.77
2018-05-07T02:04:13.038Z,101723.51
2018-05-07T02:05:16.366Z,101722.27
2018-05-07T02:06:19.692Z,101719.22
2018-05-07T02:07:22.995Z,101723.31
2018-05-07T02:08:26.315Z,101717.25
2018-05-07T02:09:29.628Z,101724.03
2018-05-07T02:10:32.940Z,101717.87
2018-05-07T02:11:36.272Z,101717.19
2018-05-07T02:12:39.602Z,101716.34
2018-05-07T02:13:42.912Z,101721.77
2018-05-07T02:14:46.224Z,101719.73
2018-05-07T02:15:49.548Z,101716.20
2018-05-07T02:16:52.897Z,101715.84
2018-05-07T02:17:56.194Z,101717.78
2018-05-07T02:18:59.515Z,101717.91
2018-05-07T02:20:02.843Z,101718.92
2018-05-07T02:21:06.146Z,101718.06
2018-05-07T02:22:09.477Z,101723.98
2018-05-07T02:23:12.799Z,101712.08
2018-05-07T02:24:16.111Z,101715.73
2018-05-07T02:25:19.427Z,101718.06
2018-05-07T02:26:22.727Z,101715.44
2018-05-07T02:27:26.063Z,101712.92
2018-05-07T02:28:29.378Z,101712.98
2018-05-07T02:29:32.706Z,101714.88
2018-05-07T02:30:36.008Z,101719.00
2018-05-07T02:31:39.353Z,101719.98
2018-05-07T02:32:42.692Z,101720.97
2018-05-07T02:33:46.010Z,101722.89
2018-05-07T02:34:49.309Z,101715.89
2018-05-07T02:35:52.667Z,101720.92
2018-05-07T02:36:55.992Z,101712.16
2018-05-07T02:37:59.355Z,101716.67
2018-05-07T02:39:02.803Z,101714.64
2018-05-07T02:40:06.094Z,101710.35
2018-05-07T02:41:09.402Z,101715.35
2018-05-07T02:42:12.732Z,101718.16
2018-05-07T02:43:16.050Z,101717.47
2018-05-07T02:44:19.461Z,101718.45
2018-05-07T02:45:22.752Z,101715.93
2018-05-07T02:46:26.079Z,101712.03
2018-05-07T02:47:29.391Z,101717.56
2018-05-07T02:48:32.891Z,101720.44
2018-05-07T02:49:36.240Z,101711.14
2018-05-07T02:50:39.584Z,101714.86
2018-05-07T02:51:42.905Z,101712.73
2018-05-07T02:52:46.222Z,101716.00
2018-05-07T02:53:49.575Z,101714.79
2018-05-07T02:54:52.883Z,101708.31
2018-05-07T02:55:56.201Z,101707.03
2018-05-07T02:56:59.514Z,101711.12
2018-05-07T02:58:02.838Z,101712.19
2018-05-07T02:59:06.171Z,101709.15
2018-05-07T03:00:09.480Z,101714.24
2018-05-07T03:01:12.780Z,101712.17
2018-05-07T03:02:16.077Z,101711.84
2018-05-07T03:03:19.380Z,101713.73
2018-05-07T03:04:22.719Z,101711.64
2018-05-07T03:05:26.014Z,101708.66
2018-05-07T03:06:29.325Z,101708.82
2018-05-07T03:07:32.878Z,101706.27
2018-05-07T03:08:36.207Z,101701.88
2018-05-07T03:09:39.539Z,101705.58
2018-05-07T03:10:42.842Z,101703.45
2018-05-07T03:11:46.163Z,101701.41
2018-05-07T03:12:49.484Z,101705.98
2018-05-07T03:13:52.784Z,101705.20
2018-05-07T03:14:56.125Z,101700.02
2018-05-07T03:15:59.422Z,101696.48
2018-05-07T03:17:02.728Z,101691.28
2018-05-07T03:18:06.030Z,101701.16
2018-05-07T03:19:09.338Z,101700.86
2018-05-07T03:20:12.651Z,101699.31
2018-05-07T03:21:15.958Z,101697.21
2018-05-07T03:22:19.271Z,101697.34
2018-05-07T03:23:22.593Z,101697.56
2018-05-07T03:24:25.901Z,101700.30
2018-05-07T03:25:29.228Z,101698.59
2018-05-07T03:26:32.527Z,101699.61
2018-05-07T03:27:35.824Z,101695.22
2018-05-07T03:28:39.145Z,101696.20
2018-05-07T03:29:42.445Z,101696.78
2018-05-07T03:30:45.779Z,101696.91
2018-05-07T03:31:49.101Z,101700.56
2018-05-07T03:32:52.416Z,101695.36
2018-05-07T03:33:55.732Z,101699.93
2018-05-07T03:34:59.054Z,101696.98
2018-05-07T03:36:02.388Z,101695.77
2018-05-07T03:37:05.685Z,101699.84
2018-05-07T03:38:09.010Z,101699.09
2018-05-07T03:39:12.322Z,101699.64
2018-05-07T03:40:15.631Z,101694.86
2018-05-07T03:41:18.960Z,101698.09
2018-05-07T03:42:22.268Z,101696.88
2018-05-07T03:43:25.580Z,101692.09
2018-05-07T03:44:28.954Z,101697.52
2018-05-07T03:45:32.253Z,101694.90
2018-05-07T03:46:35.579Z,101699.02
2018-05-07T03:47:38.886Z,101690.61
2018-05-07T03:48:42.491Z,101694.69
2018-05-07T03:49:45.771Z,101689.39
2018-05-07T03:50:49.065Z,101690.41
2018-05-07T03:51:52.409Z,101693.14
2018-05-07T03:52:55.723Z,101687.42
2018-05-07T03:53:59.022Z,101688.39
2018-05-07T03:55:02.332Z,101684.95
2018-05-07T03:56:05.635Z,101689.52
2018-05-07T03:57:09.034Z,101687.27
2018-05-07T03:58:12.372Z,101682.89
2018-05-07T03:59:15.675Z,101683.41
2018-05-07T04:00:19.064Z,101678.97
2018-05-07T04:01:22.385Z,101685.23
2018-05-07T04:02:25.719Z,101679.58
2018-05-07T04:03:29.043Z,101683.59
2018-05-07T04:04:32.353Z,101681.92
2018-05-07T04:05:35.708Z,101683.27
2018-05-07T04:06:39.027Z,101678.88
2018-05-07T04:07:42.363Z,101678.52
2018-05-07T04:08:45.672Z,101677.23
2018-05-07T04:09:48.981Z,101678.67
2018-05-07T04:10:52.279Z,101683.17
2018-05-07T04:11:55.582Z,101681.41
2018-05-07T04:12:58.904Z,101677.52
2018-05-07T04:14:02.234Z,101679.86
2018-05-07T04:15:05.539Z,101679.01
2018-05-07T04:16:08.824Z,101678.58
2018-05-07T04:17:23.856Z,101675.97
2018-05-07T04:18:39.042Z,101679.34
2018-05-07T04:19:54.147Z,101680.47
2018-05-07T04:21:09.251Z,101685.52
2018-05-07T04:22:24.439Z,101679.89
2018-05-07T04:23:39.385Z,101676.48
2018-05-07T04:24:42.732Z,101685.95
2018-05-07T04:25:46.051Z,101677.83
2018-05-07T04:26:49.380Z,101676.37
2018-05-07T04:27:52.726Z,101680.33
2018-05-07T04:28:56.083Z,101678.98
2018-05-07T04:29:59.391Z,101676.31
2018-05-07T04:31:02.709Z,101675.30
2018-05-07T04:32:06.035Z,101679.31
2018-05-07T04:33:09.334Z,101676.16
2018-05-07T04:34:12.871Z,101672.62
2018-05-07T04:35:16.232Z,101682.42
2018-05-07T04:36:19.524Z,101678.34
2018-05-07T04:37:22.827Z,101682.36
2018-05-07T04:38:26.271Z,101689.48
2018-05-07T04:39:29.601Z,101681.94
2018-05-07T04:40:32.916Z,101685.47
2018-05-07T04:41:36.219Z,101686.38
2018-05-07T04:42:39.518Z,101684.49
2018-05-07T04:43:42.815Z,101680.96
2018-05-07T04:44:46.155Z,101681.81
2018-05-07T04:45:49.456Z,101685.83
2018-05-07T04:46:52.783Z,101693.38
2018-05-07T04:47:56.119Z,101692.04
2018-05-07T04:48:59.667Z,101684.43
2018-05-07T04:50:03.154Z,101685.25
2018-05-07T04:51:06.462Z,101684.70
2018-05-07T04:52:09.851Z,101682.88
2018-05-07T04:53:13.172Z,101689.08
2018-05-07T04:54:16.496Z,101684.16
2018-05-07T04:55:20.073Z,101685.40
2018-05-07T04:56:23.391Z,101682.72
2018-05-07T04:57:26.695Z,101687.16
2018-05-07T04:58:30.073Z,101684.85
2018-05-07T04:59:33.392Z,101687.41
2018-05-07T05:00:36.784Z,101687.80
2018-05-07T05:01:40.103Z,101685.48
2018-05-07T05:02:43.418Z,101683.66
2018-05-07T05:03:46.724Z,101685.85
2018-05-07T05:04:50.027Z,101684.87
2018-05-07T05:05:53.366Z,101682.59
2018-05-07T05:06:56.724Z,101686.06
2018-05-07T05:08:00.076Z,101687.28
2018-05-07T05:09:03.553Z,101687.19
2018-05-07T05:10:06.853Z,101682.62
2018-05-07T05:11:10.185Z,101687.00
2018-05-07T05:12:13.524Z,101682.83
2018-05-07T05:13:16.842Z,101687.64
2018-05-07T05:14:20.223Z,101688.82
2018-05-07T05:15:24.282Z,101686.99
2018-05-07T05:16:27.610Z,101687.30
2018-05-07T05:17:30.939Z,101684.89
2018-05-07T05:18:34.257Z,101686.59
2018-05-07T05:19:37.631Z,101683.75
2018-05-07T05:20:40.940Z,101684.55
2018-05-07T05:21:44.268Z,101684.81
2018-05-07T05:22:47.576Z,101682.38
2018-05-07T05:23:50.883Z,101689.70
2018-05-07T05:24:54.232Z,101687.23
2018-05-07T05:25:57.537Z,101691.91
2018-05-07T05:27:00.863Z,101692.33
2018-05-07T05:28:04.163Z,101687.42
2018-05-07T05:29:07.566Z,101692.95
2018-05-07T05:30:10.830Z,101690.45
2018-05-07T05:31:14.131Z,101687.36
2018-05-07T05:32:17.512Z,101687.23
2018-05-07T05:33:20.819Z,101691.80
2018-05-07T05:34:24.144Z,101682.03
2018-05-07T05:35:27.471Z,101685.70
2018-05-07T05:36:30.788Z,101681.56
2018-05-07T05:37:34.243Z,101685.82
2018-05-07T05:38:37.531Z,101684.44
2018-05-07T05:39:41.295Z,101689.99
2018-05-07T05:40:44.595Z,101682.41
2018-05-07T05:41:47.921Z,101677.22
2018-05-07T05:42:51.340Z,101684.19
2018-05-07T05:43:54.657Z,101679.16
2018-05-07T05:44:57.983Z,101676.73
2018-05-07T05:46:01.304Z,101682.20
2018-05-07T05:47:04.629Z,101675.41
2018-05-07T05:48:07.946Z,101673.31
2018-05-07T05:49:12.228Z,101674.89
2018-05-07T05:50:15.602Z,101672.59
2018-05-07T05:51:18.876Z,101675.93
2018-05-07T05:52:22.182Z,101674.41
2018-05-07T05:53:25.558Z,101673.27
2018-05-07T05:54:28.877Z,101671.84
2018-05-07T05:55:32.385Z,101676.64
2018-05-07T05:56:35.740Z,101680.65
2018-05-07T05:57:39.069Z,101673.22
2018-05-07T05:58:42.447Z,101671.50
2018-05-07T05:59:45.767Z,101673.72
2018-05-07T06:00:49.150Z,101669.00
2018-05-07T06:01:52.477Z,101666.32
2018-05-07T06:02:55.776Z,101672.72
2018-05-07T06:03:59.215Z,101666.66
2018-05-07T06:05:02.448Z,101669.72
2018-05-07T06:06:05.783Z,101668.70
2018-05-07T06:07:09.128Z,101665.03
2018-05-07T06:08:12.420Z,101670.13
2018-05-07T06:09:15.754Z,101666.44
2018-05-07T06:10:19.413Z,101673.12
2018-05-07T06:11:22.776Z,101674.63
2018-05-07T06:12:26.103Z,101671.53
2018-05-07T06:13:29.410Z,101667.62
2018-05-07T06:14:32.919Z,101665.87
2018-05-07T06:15:36.425Z,101670.43
2018-05-07T06:16:39.747Z,101666.88
2018-05-07T06:17:43.422Z,101665.82
2018-05-07T06:18:46.745Z,101669.72
2018-05-07T06:19:50.081Z,101670.33
2018-05-07T06:20:53.406Z,101670.06
2018-05-07T06:21:56.700Z,101671.28
2018-05-07T06:23:00.065Z,101673.89
2018-05-07T06:24:03.371Z,101674.70
2018-05-07T06:25:06.708Z,101675.72
2018-05-07T06:26:10.127Z,101677.72
2018-05-07T06:27:13.435Z,101671.33
2018-05-07T06:28:16.762Z,101671.92
2018-05-07T06:29:20.078Z,101681.44
2018-05-07T06:30:23.431Z,101675.09
2018-05-07T06:31:26.866Z,101674.52
2018-05-07T06:32:30.236Z,101680.77
2018-05-07T06:33:33.608Z,101675.61
2018-05-07T06:34:36.946Z,101672.05
2018-05-07T06:35:40.298Z,101675.25
2018-05-07T06:37:53.440Z,101670.95
2018-05-07T06:38:56.750Z,101678.55
2018-05-07T06:40:00.072Z,101670.91
2018-05-07T06:41:03.398Z,101667.27
2018-05-07T06:42:06.710Z,101668.66
2018-05-07T06:43:10.040Z,101669.52
2018-05-07T06:44:13.347Z,101669.14
2018-05-07T06:45:16.658Z,101662.38
2018-05-07T06:46:20.171Z,101666.90
2018-05-07T06:47:23.568Z,101668.61
2018-05-07T06:48:26.872Z,101667.13
2018-05-07T06:49:30.461Z,101667.08
2018-05-07T06:50:33.780Z,101672.44
2018-05-07T06:51:37.128Z,101669.05
2018-05-07T06:52:40.449Z,101667.63
2018-05-07T06:53:43.823Z,101670.27
2018-05-07T06:54:47.179Z,101669.23
2018-05-07T06:55:50.491Z,101672.77
2018-05-07T06:56:53.843Z,101674.88
2018-05-07T06:57:57.139Z,101669.56
2018-05-07T06:59:00.448Z,101672.30
2018-05-07T07:00:03.762Z,101672.13
2018-05-07T07:01:07.121Z,101665.48
2018-05-07T07:02:10.580Z,101672.62
2018-05-07T07:03:13.806Z,101667.58
2018-05-07T07:04:17.116Z,101668.23
2018-05-07T07:05:20.423Z,101665.95
2018-05-07T07:06:23.744Z,101668.84
2018-05-07T07:07:27.188Z,101670.42
2018-05-07T07:08:30.640Z,101668.80
2018-05-07T07:09:33.781Z,101658.92
2018-05-07T07:10:37.084Z,101668.25
2018-05-07T07:11:40.414Z,101666.98
2018-05-07T07:12:43.717Z,101664.69
2018-05-07T07:13:47.048Z,101666.55
2018-05-07T07:14:50.342Z,101660.17
2018-05-07T07:15:53.653Z,101666.63
2018-05-07T07:16:57.007Z,101665.48
2018-05-07T07:18:00.325Z,101661.94
2018-05-07T07:19:03.763Z,101665.02
2018-05-07T07:20:07.059Z,101664.94
2018-05-07T07:21:10.361Z,101658.91
2018-05-07T07:22:13.683Z,101664.52
2018-05-07T07:23:17.056Z,101662.22
2018-05-07T07:24:20.362Z,101662.02
2018-05-07T07:25:23.690Z,101656.81
2018-05-07T07:26:27.004Z,101661.91
2018-05-07T07:27:30.328Z,101661.44
2018-05-07T07:28:33.670Z,101659.10
2018-05-07T07:29:36.959Z,101661.80
2018-05-07T07:30:40.260Z,101659.84
2018-05-07T07:31:43.587Z,101664.86
2018-05-07T07:32:46.899Z,101663.63
2018-05-07T07:33:50.429Z,101662.29
2018-05-07T07:34:53.603Z,101661.36
2018-05-07T07:35:56.931Z,101664.00
2018-05-07T07:37:00.240Z,101666.63
2018-05-07T07:38:03.567Z,101663.20
2018-05-07T07:39:06.956Z,101663.25
2018-05-07T07:40:10.267Z,101669.31
2018-05-07T07:41:13.688Z,101665.73
2018-05-07T07:42:16.986Z,101659.63
2018-05-07T07:43:20.346Z,101659.61
2018-05-07T07:44:23.672Z,101663.90
2018-05-07T07:45:26.979Z,101662.50
2018-05-07T07:46:30.279Z,101654.95
2018-05-07T07:47:33.608Z,101657.80
2018-05-07T07:48:36.985Z,101661.46
2018-05-07T07:49:40.498Z,101656.97
2018-05-07T07:50:43.898Z,101658.00
2018-05-07T07:51:47.263Z,101656.34
2018-05-07T07:52:50.595Z,101660.83
2018-05-07T07:53:53.948Z,101658.95
2018-05-07T07:54:57.234Z,101657.76
2018-05-07T07:56:00.627Z,101659.66
2018-05-07T07:57:03.935Z,101662.84
2018-05-07T07:58:07.272Z,101661.86
2018-05-07T07:59:10.583Z,101659.94
2018-05-07T08:00:13.932Z,101660.73
2018-05-07T08:01:17.270Z,101658.91
2018-05-07T08:02:20.671Z,101658.78
2018-05-07T08:03:23.946Z,101658.19
2018-05-07T08:04:27.250Z,101659.91
2018-05-07T08:05:30.606Z,101660.28
2018-05-07T08:06:33.924Z,101658.84
2018-05-07T08:07:37.245Z,101661.50
2018-05-07T08:08:40.559Z,101658.23
2018-05-07T08:09:43.885Z,101654.37
2018-05-07T08:10:47.221Z,101654.13
2018-05-07T08:11:50.522Z,101655.68
2018-05-07T08:12:53.910Z,101665.33
2018-05-07T08:13:57.223Z,101660.50
2018-05-07T08:15:00.531Z,101657.99
2018-05-07T08:16:03.925Z,101655.88
2018-05-07T08:17:07.248Z,101662.77
2018-05-07T08:18:10.581Z,101657.52
2018-05-07T08:19:13.877Z,101656.87
2018-05-07T08:20:17.200Z,101658.90
2018-05-07T08:21:20.577Z,101657.33
2018-05-07T08:22:23.944Z,101660.03
2018-05-07T08:23:27.259Z,101656.05
2018-05-07T08:24:30.553Z,101651.15
2018-05-07T08:25:33.850Z,101653.00
2018-05-07T08:26:37.205Z,101646.75
2018-05-07T08:27:40.548Z,101644.03
2018-05-07T08:28:43.885Z,101651.34
2018-05-07T08:29:47.460Z,101643.64
2018-05-07T08:30:50.788Z,101645.93
2018-05-07T08:31:54.219Z,101647.28
2018-05-07T08:32:57.568Z,101650.81
2018-05-07T08:34:00.991Z,101645.08
2018-05-07T08:35:04.350Z,101641.45
2018-05-07T08:36:07.739Z,101641.53
2018-05-07T08:37:11.138Z,101642.38
2018-05-07T08:38:14.468Z,101641.11
2018-05-07T08:39:17.811Z,101643.81
2018-05-07T08:40:21.223Z,101642.46
2018-05-07T08:41:24.667Z,101632.56
2018-05-07T08:42:28.063Z,101638.91
2018-05-07T08:43:31.502Z,101637.75
2018-05-07T08:44:34.858Z,101632.08
2018-05-07T08:45:38.167Z,101631.86
2018-05-07T08:46:41.512Z,101633.72
2018-05-07T08:47:44.848Z,101634.23
2018-05-07T08:48:48.186Z,101627.88
2018-05-07T08:49:51.760Z,101620.69
2018-05-07T08:50:55.099Z,101629.16
2018-05-07T08:51:58.414Z,101628.22
2018-05-07T08:53:01.990Z,101631.74
2018-05-07T08:54:05.242Z,101630.39
2018-05-07T08:55:08.573Z,101631.48
2018-05-07T08:56:11.884Z,101631.58
2018-05-07T08:57:15.223Z,101630.30
2018-05-07T08:58:18.572Z,101625.31
2018-05-07T08:59:21.911Z,101624.80
2018-05-07T09:00:25.251Z,101623.95
2018-05-07T09:01:28.566Z,101629.80
2018-05-07T09:02:31.884Z,101622.27
2018-05-07T09:03:35.224Z,101614.91
2018-05-07T09:04:38.548Z,101617.95
2018-05-07T09:05:41.916Z,101618.26
2018-05-07T09:06:45.222Z,101611.41
2018-05-07T09:07:48.567Z,101616.31
2018-05-07T09:08:53.716Z,101613.09
2018-05-07T09:09:57.054Z,101605.91
2018-05-07T09:11:00.365Z,101612.17
2018-05-07T09:12:03.704Z,101605.31
2018-05-07T09:13:07.032Z,101611.74
2018-05-07T09:14:10.483Z,101608.11
2018-05-07T09:15:13.811Z,101600.91
2018-05-07T09:16:17.140Z,101604.13
2018-05-07T09:17:20.484Z,101607.27
2018-05-07T09:18:23.811Z,101607.27
2018-05-07T09:19:27.178Z,101601.42
2018-05-07T09:20:30.484Z,101601.33
2018-05-07T09:21:34.903Z,101603.95
2018-05-07T09:22:38.245Z,101594.98
2018-05-07T09:23:41.547Z,101593.13
2018-05-07T09:24:44.870Z,101595.13
2018-05-07T09:25:48.181Z,101590.55
2018-05-07T09:26:51.496Z,101591.28
2018-05-07T09:27:54.808Z,101588.48
2018-05-07T09:28:58.137Z,101591.54
2018-05-07T09:30:01.451Z,101590.19
2018-05-07T09:31:04.760Z,101583.75
2018-05-07T09:32:08.424Z,101583.63
2018-05-07T09:33:11.881Z,101590.83
2018-05-07T09:34:15.188Z,101589.81
2018-05-07T09:35:18.530Z,101587.53
2018-05-07T09:36:21.833Z,101582.53
2018-05-07T09:37:26.737Z,101582.53
2018-05-07T09:38:30.084Z,101581.17
2018-05-07T09:39:33.374Z,101583.27
2018-05-07T09:40:36.889Z,101581.82
2018-05-07T09:41:40.207Z,101585.29
2018-05-07T09:42:43.526Z,101589.06
2018-05-07T09:43:46.887Z,101581.70
2018-05-07T09:44:50.199Z,101582.34
2018-05-07T09:45:53.588Z,101578.53
2018-05-07T09:46:56.876Z,101578.33
2018-05-07T09:48:00.247Z,101583.45
2018-05-07T09:49:03.629Z,101587.86
2018-05-07T09:50:07.097Z,101579.64
2018-05-07T09:51:10.409Z,101578.00
2018-05-07T09:52:13.749Z,101579.27
2018-05-07T09:53:17.063Z,101576.47
2018-05-07T09:54:20.589Z,101578.25
2018-05-07T09:55:23.869Z,101576.05
2018-05-07T09:56:27.303Z,101573.25
2018-05-07T09:57:30.627Z,101580.53
2018-05-07T09:58:33.965Z,101570.72
2018-05-07T09:59:37.260Z,101574.45
2018-05-07T10:00:40.550Z,101569.66
2018-05-07T10:01:43.886Z,101565.67
2018-05-07T10:02:47.198Z,101567.20
2018-05-07T10:03:50.500Z,101563.14
2018-05-07T10:04:53.836Z,101565.77
2018-05-07T10:05:57.147Z,101557.22
2018-05-07T10:07:00.490Z,101561.95
2018-05-07T10:08:03.802Z,101556.84
2018-05-07T10:09:07.131Z,101561.48
2018-05-07T10:10:10.423Z,101557.25
2018-05-07T10:11:13.739Z,101559.37
2018-05-07T10:12:17.125Z,101557.47
2018-05-07T10:13:20.439Z,101559.58
2018-05-07T10:14:23.795Z,101553.45
2018-05-07T10:15:27.092Z,101556.07
2018-05-07T10:16:30.414Z,101548.37
2018-05-07T10:17:33.742Z,101550.73
2018-05-07T10:18:37.472Z,101549.93
2018-05-07T10:19:40.795Z,101543.58
2018-05-07T10:20:44.108Z,101543.03
2018-05-07T10:21:47.430Z,101540.66
2018-05-07T10:22:51.035Z,101532.95
2018-05-07T10:23:54.338Z,101542.15
2018-05-07T10:24:57.662Z,101531.98
2018-05-07T10:26:00.995Z,101530.84
2018-05-07T10:27:04.321Z,101541.39
2018-05-07T10:28:07.658Z,101534.95
2018-05-07T10:29:11.185Z,101529.95
2018-05-07T10:30:14.488Z,101537.57
2018-05-07T10:31:17.906Z,101531.13
2018-05-07T10:32:21.251Z,101533.30
2018-05-07T10:33:24.573Z,101529.14
2018-05-07T10:34:27.903Z,101529.99
2018-05-07T10:35:31.235Z,101528.97
2018-05-07T10:36:34.551Z,101519.79
2018-05-07T10:37:38.059Z,101521.14
2018-05-07T10:38:41.404Z,101527.92
2018-05-07T10:39:44.731Z,101520.12
2018-05-07T10:40:48.043Z,101524.10
2018-05-07T10:41:51.380Z,101517.24
2018-05-07T10:42:54.683Z,101518.59
2018-05-07T10:43:58.064Z,101516.30
2018-05-07T10:45:01.400Z,101513.90
2018-05-07T10:46:04.703Z,101520.16
2018-05-07T10:47:08.045Z,101504.75
2018-05-07T10:48:11.363Z,101515.08
2018-05-07T10:49:14.907Z,101507.80
2018-05-07T10:50:18.347Z,101511.98
2018-05-07T10:51:21.733Z,101502.83
2018-05-07T10:52:25.104Z,101506.69
2018-05-07T10:53:28.408Z,101507.95
2018-05-07T10:54:31.799Z,101511.00
2018-05-07T10:55:35.171Z,101501.22
2018-05-07T10:56:38.490Z,101506.98
2018-05-07T10:57:41.815Z,101494.05
2018-05-07T10:58:45.214Z,101496.17
2018-05-07T10:59:48.549Z,101495.12
2018-05-07T11:00:51.860Z,101493.16
2018-05-07T11:01:55.188Z,101487.95
2018-05-07T11:02:58.499Z,101490.48
2018-05-07T11:04:01.808Z,101489.47
2018-05-07T11:05:05.141Z,101482.98
2018-05-07T11:06:08.448Z,101486.88
2018-05-07T11:07:11.763Z,101480.43
2018-05-07T11:08:15.085Z,101482.59
2018-05-07T11:09:18.396Z,101479.71
2018-05-07T11:10:21.846Z,101473.69
2018-05-07T11:11:25.137Z,101483.48
2018-05-07T11:12:28.511Z,101475.25
2018-05-07T11:13:31.910Z,101476.82
2018-05-07T11:14:35.228Z,101473.93
2018-05-07T11:15:38.673Z,101469.56
2018-05-07T11:16:41.998Z,101472.01
2018-05-07T11:17:45.311Z,101468.36
2018-05-07T11:18:48.656Z,101474.51
2018-05-07T11:19:52.022Z,101467.64
2018-05-07T11:20:55.312Z,101476.63
2018-05-07T11:21:58.615Z,101470.56
2018-05-07T11:23:01.927Z,101462.34
2018-05-07T11:24:05.237Z,101459.48
2018-05-07T11:25:08.535Z,101458.12
2018-05-07T11:26:11.862Z,101460.32
2018-05-07T11:27:15.176Z,101465.33
2018-05-07T11:28:18.491Z,101466.05
2018-05-07T11:29:21.793Z,101462.40
2018-05-07T11:30:25.106Z,101462.82
2018-05-07T11:31:28.459Z,101462.73
2018-05-07T11:32:31.779Z,101463.16
2018-05-07T11:33:35.119Z,101464.30
2018-05-07T11:34:38.670Z,101464.12
2018-05-07T11:35:42.121Z,101460.05
2018-05-07T11:36:45.484Z,101452.33
2018-05-07T11:37:48.776Z,101455.05
2018-05-07T11:38:52.141Z,101458.91
2018-05-07T11:39:55.431Z,101449.74
2018-05-07T11:40:58.738Z,101452.88
2018-05-07T11:42:02.075Z,101449.14
2018-05-07T11:43:05.435Z,101451.73
2018-05-07T11:44:08.732Z,101449.34
2018-05-07T11:45:12.061Z,101442.05
2018-05-07T11:46:15.371Z,101442.47
2018-05-07T11:47:18.798Z,101440.61
2018-05-07T11:48:22.035Z,101445.91
2018-05-07T11:49:25.334Z,101453.36
2018-05-07T11:50:29.611Z,101445.84
2018-05-07T11:51:32.986Z,101442.83
2018-05-07T11:52:36.324Z,101444.34
2018-05-07T11:53:39.643Z,101443.61
2018-05-07T11:54:42.965Z,101439.66
2018-05-07T11:55:46.296Z,101439.98
2018-05-07T11:56:49.610Z,101437.60
2018-05-07T11:57:52.937Z,101441.88
2018-05-07T11:58:56.256Z,101431.36
2018-05-07T11:59:59.575Z,101433.86
2018-05-07T12:01:02.891Z,101439.10
2018-05-07T12:02:06.178Z,101433.88
2018-05-07T12:03:09.522Z,101439.55
2018-05-07T12:04:12.883Z,101445.61
2018-05-07T12:05:16.187Z,101438.94